UAE706 FSIA-OMDB
Flight info
| Callsign | UAE706 |
|---|---|
| Flight time | 2h 57m |
| Altitude | 33000 |
| Route | DULMA1B DULMA T145 GEPAX/N0512F320 DCT IMTIP/N0509F330 UM314 SUHIL R401 VELIK/N0503F340 R401 MUSAP/N0497F350 R401 PEDOG Q308 KIPOK Q568 IMPED |
| Aircraft | B77W/H-SDE1E2E3FGHIJ2J3J4J5M1RWXY/LB1D1 |
Departure
| Time | 2026-04-20 21:41 |
|---|---|
| Airport | Seychelles International Airport (FSIA) |
Arrival
| Time | 2026-04-21 00:38 |
|---|---|
| Airport | Dubai International Airport (OMDB) |
| Time | Latitude | Longitude | Altitude | Speed | Heading |
|---|---|---|---|---|---|
| 2026-04-20 21:27 | -4.67067 | 55.51248 | 27 ft | 0 kts | 215° |
| 2026-04-20 21:34 | -4.67061 | 55.51253 | 27 ft | 2 kts | 215° |
| 2026-04-20 21:34 | -4.67049 | 55.51261 | 27 ft | 2 kts | 215° |
| 2026-04-20 21:34 | -4.67036 | 55.51270 | 27 ft | 2 kts | 219° |
| 2026-04-20 21:34 | -4.67027 | 55.51281 | 27 ft | 2 kts | 249° |
| 2026-04-20 21:35 | -4.67024 | 55.51296 | 27 ft | 2 kts | 274° |
| 2026-04-20 21:35 | -4.67027 | 55.51310 | 27 ft | 2 kts | 297° |
| 2026-04-20 21:35 | -4.67031 | 55.51316 | 27 ft | 1 kts | 305° |
| 2026-04-20 21:35 | -4.67032 | 55.51317 | 27 ft | 0 kts | 305° |
| 2026-04-20 21:37 | -4.67031 | 55.51317 | 27 ft | 0 kts | 305° |
| 2026-04-20 21:37 | -4.67023 | 55.51304 | 26 ft | 5 kts | 302° |
| 2026-04-20 21:38 | -4.66987 | 55.51249 | 26 ft | 12 kts | 303° |
| 2026-04-20 21:38 | -4.66939 | 55.51199 | 26 ft | 11 kts | 345° |
| 2026-04-20 21:38 | -4.66868 | 55.51175 | 25 ft | 13 kts | 322° |
| 2026-04-20 21:38 | -4.66808 | 55.51101 | 24 ft | 13 kts | 307° |
| 2026-04-20 21:39 | -4.66775 | 55.51059 | 23 ft | 2 kts | 309° |
| 2026-04-20 21:39 | -4.66753 | 55.51048 | 23 ft | 5 kts | 355° |
| 2026-04-20 21:39 | -4.66707 | 55.51066 | 23 ft | 7 kts | 33° |
| 2026-04-20 21:39 | -4.66688 | 55.51114 | 23 ft | 7 kts | 108° |
| 2026-04-20 21:40 | -4.66719 | 55.51162 | 24 ft | 12 kts | 124° |
| 2026-04-20 21:40 | -4.66896 | 55.51416 | 26 ft | 81 kts | 125° |
| 2026-04-20 21:40 | -4.67364 | 55.52085 | 23 ft | 150 kts | 125° |
| 2026-04-20 21:40 | -4.68058 | 55.53083 | 205 ft | 192 kts | 124° |
| 2026-04-20 21:41 | -4.68849 | 55.54214 | 901 ft | 202 kts | 126° |
| 2026-04-20 21:41 | -4.69650 | 55.55345 | 1738 ft | 203 kts | 124° |
| 2026-04-20 21:41 | -4.70487 | 55.56545 | 2228 ft | 219 kts | 123° |
| 2026-04-20 21:41 | -4.71392 | 55.57843 | 2780 ft | 236 kts | 124° |
| 2026-04-20 21:42 | -4.72352 | 55.59216 | 3387 ft | 250 kts | 124° |
| 2026-04-20 21:42 | -4.73357 | 55.60704 | 4037 ft | 262 kts | 116° |
| 2026-04-20 21:42 | -4.73810 | 55.62437 | 4809 ft | 266 kts | 88° |
| 2026-04-20 21:42 | -4.73362 | 55.64221 | 5663 ft | 269 kts | 61° |
| 2026-04-20 21:43 | -4.72129 | 55.65627 | 6439 ft | 275 kts | 34° |
| 2026-04-20 21:43 | -4.70358 | 55.66334 | 7146 ft | 283 kts | 8° |
| 2026-04-20 21:43 | -4.68362 | 55.66374 | 7950 ft | 287 kts | 359° |
| 2026-04-20 21:43 | -4.66360 | 55.66295 | 8716 ft | 291 kts | 358° |
| 2026-04-20 21:44 | -4.64341 | 55.66208 | 9475 ft | 294 kts | 358° |
| 2026-04-20 21:44 | -4.62277 | 55.66119 | 10235 ft | 298 kts | 359° |
| 2026-04-20 21:44 | -4.60156 | 55.66028 | 10717 ft | 313 kts | 359° |
| 2026-04-20 21:44 | -4.57901 | 55.65932 | 11163 ft | 329 kts | 358° |
| 2026-04-20 21:45 | -4.55562 | 55.65831 | 11605 ft | 344 kts | 359° |
| 2026-04-20 21:45 | -4.53124 | 55.65727 | 12054 ft | 359 kts | 359° |
| 2026-04-20 21:45 | -4.50561 | 55.65617 | 12507 ft | 374 kts | 358° |
| 2026-04-20 21:45 | -4.47919 | 55.65503 | 12934 ft | 387 kts | 358° |
| 2026-04-20 21:46 | -4.45168 | 55.65385 | 13340 ft | 401 kts | 359° |
| 2026-04-20 21:46 | -4.42326 | 55.65228 | 13862 ft | 411 kts | 357° |
| 2026-04-20 21:46 | -4.39472 | 55.65030 | 14489 ft | 416 kts | 357° |
| 2026-04-20 21:46 | -4.36562 | 55.64830 | 15160 ft | 420 kts | 357° |
| 2026-04-20 21:47 | -4.33621 | 55.64629 | 15816 ft | 424 kts | 356° |
| 2026-04-20 21:47 | -4.30639 | 55.64427 | 16408 ft | 429 kts | 357° |
| 2026-04-20 21:47 | -4.27645 | 55.64225 | 16978 ft | 434 kts | 356° |
| 2026-04-20 21:47 | -4.24605 | 55.64021 | 17591 ft | 437 kts | 356° |
| 2026-04-20 21:48 | -4.21577 | 55.63818 | 18186 ft | 440 kts | 356° |
| 2026-04-20 21:48 | -4.18498 | 55.63612 | 18795 ft | 442 kts | 356° |
| 2026-04-20 21:48 | -4.15439 | 55.63408 | 19375 ft | 445 kts | 356° |
| 2026-04-20 21:48 | -4.12329 | 55.63200 | 19920 ft | 448 kts | 355° |
| 2026-04-20 21:49 | -4.09191 | 55.62991 | 20465 ft | 451 kts | 355° |
| 2026-04-20 21:49 | -4.06018 | 55.62780 | 20980 ft | 454 kts | 355° |
| 2026-04-20 21:49 | -4.02878 | 55.62570 | 21469 ft | 458 kts | 355° |
| 2026-04-20 21:49 | -3.99673 | 55.62357 | 21978 ft | 460 kts | 355° |
| 2026-04-20 21:50 | -3.96453 | 55.62142 | 22506 ft | 461 kts | 354° |
| 2026-04-20 21:50 | -3.93265 | 55.61930 | 23015 ft | 463 kts | 355° |
| 2026-04-20 21:50 | -3.90038 | 55.61715 | 23516 ft | 465 kts | 354° |
| 2026-04-20 21:50 | -3.86784 | 55.61499 | 24009 ft | 467 kts | 355° |
| 2026-04-20 21:51 | -3.83522 | 55.61281 | 24494 ft | 469 kts | 355° |
| 2026-04-20 21:51 | -3.80250 | 55.61064 | 24982 ft | 471 kts | 355° |
| 2026-04-20 21:51 | -3.76967 | 55.60845 | 25514 ft | 472 kts | 355° |
| 2026-04-20 21:51 | -3.73677 | 55.60627 | 26001 ft | 474 kts | 355° |
| 2026-04-20 21:52 | -3.70364 | 55.60406 | 26470 ft | 477 kts | 355° |
| 2026-04-20 21:52 | -3.67034 | 55.60184 | 26919 ft | 480 kts | 355° |
| 2026-04-20 21:52 | -3.63687 | 55.59962 | 27410 ft | 482 kts | 355° |
| 2026-04-20 21:52 | -3.60333 | 55.59739 | 27911 ft | 483 kts | 355° |
| 2026-04-20 21:53 | -3.56957 | 55.59515 | 28363 ft | 486 kts | 355° |
| 2026-04-20 21:53 | -3.53563 | 55.59289 | 28796 ft | 489 kts | 355° |
| 2026-04-20 21:53 | -3.50151 | 55.59062 | 29252 ft | 491 kts | 355° |
| 2026-04-20 21:53 | -3.46745 | 55.58836 | 29835 ft | 490 kts | 355° |
| 2026-04-20 21:54 | -3.43365 | 55.58611 | 30557 ft | 487 kts | 355° |
| 2026-04-20 21:54 | -3.39966 | 55.58385 | 31328 ft | 482 kts | 355° |
| 2026-04-20 21:54 | -3.36636 | 55.58165 | 32015 ft | 479 kts | 355° |
| 2026-04-20 21:54 | -3.33324 | 55.57944 | 32634 ft | 476 kts | 355° |
| 2026-04-20 21:55 | -3.30026 | 55.57726 | 32940 ft | 478 kts | 355° |
| 2026-04-20 21:55 | -3.23355 | 55.57282 | 32947 ft | 474 kts | 355° |
| 2026-04-20 21:56 | -3.16795 | 55.56847 | 32950 ft | 474 kts | 355° |
| 2026-04-20 21:56 | -3.10172 | 55.56407 | 32949 ft | 475 kts | 355° |
| 2026-04-20 21:57 | -3.03546 | 55.55967 | 32950 ft | 475 kts | 355° |
| 2026-04-20 21:57 | -2.96939 | 55.55528 | 32949 ft | 476 kts | 355° |
| 2026-04-20 21:58 | -2.90337 | 55.55090 | 32949 ft | 474 kts | 355° |
| 2026-04-20 21:58 | -2.83715 | 55.54650 | 32956 ft | 473 kts | 355° |
| 2026-04-20 21:59 | -2.77148 | 55.54214 | 32955 ft | 474 kts | 356° |
| 2026-04-20 21:59 | -2.70528 | 55.53775 | 32955 ft | 475 kts | 356° |
| 2026-04-20 22:00 | -2.63918 | 55.53336 | 32954 ft | 474 kts | 356° |
| 2026-04-20 22:00 | -2.57333 | 55.52899 | 32954 ft | 473 kts | 356° |
| 2026-04-20 22:01 | -2.50764 | 55.52463 | 32953 ft | 473 kts | 356° |
| 2026-04-20 22:01 | -2.44172 | 55.52026 | 32953 ft | 472 kts | 356° |
| 2026-04-20 22:02 | -2.37561 | 55.51587 | 32952 ft | 474 kts | 356° |
| 2026-04-20 22:02 | -2.30978 | 55.51150 | 32951 ft | 474 kts | 356° |
| 2026-04-20 22:03 | -2.24378 | 55.50713 | 32948 ft | 473 kts | 356° |
| 2026-04-20 22:03 | -2.17809 | 55.50277 | 32948 ft | 472 kts | 356° |
| 2026-04-20 22:04 | -2.11250 | 55.49842 | 32942 ft | 473 kts | 356° |
| 2026-04-20 22:04 | -2.04634 | 55.49403 | 32930 ft | 473 kts | 356° |
| 2026-04-20 22:05 | -1.98057 | 55.48967 | 32928 ft | 473 kts | 356° |
| 2026-04-20 22:05 | -1.91482 | 55.48531 | 32928 ft | 474 kts | 356° |
| 2026-04-20 22:05 | -1.86732 | 55.48217 | 32827 ft | 475 kts | 356° |
| 2026-04-20 22:06 | -1.80150 | 55.47780 | 32830 ft | 473 kts | 356° |
| 2026-04-20 22:06 | -1.66987 | 55.46907 | 32830 ft | 474 kts | 356° |
| 2026-04-20 22:07 | -1.53786 | 55.46033 | 32830 ft | 474 kts | 356° |
| 2026-04-20 22:07 | -1.40639 | 55.45161 | 32844 ft | 473 kts | 356° |
| 2026-04-20 22:08 | -1.27400 | 55.44284 | 32847 ft | 473 kts | 356° |
| 2026-04-20 22:08 | -1.14177 | 55.43408 | 32827 ft | 474 kts | 356° |
| 2026-04-20 22:09 | -1.00962 | 55.42533 | 32836 ft | 474 kts | 356° |
| 2026-04-20 22:09 | -0.87787 | 55.41660 | 32845 ft | 474 kts | 356° |
| 2026-04-20 22:10 | -0.74612 | 55.40787 | 32849 ft | 476 kts | 356° |
| 2026-04-20 22:10 | -0.61342 | 55.39909 | 32841 ft | 475 kts | 356° |
| 2026-04-20 22:11 | -0.48163 | 55.39036 | 32848 ft | 474 kts | 356° |
| 2026-04-20 22:11 | -0.34941 | 55.38160 | 32849 ft | 475 kts | 356° |
| 2026-04-20 22:12 | -0.21701 | 55.37283 | 32839 ft | 475 kts | 356° |
| 2026-04-20 22:12 | -0.08490 | 55.36408 | 32843 ft | 473 kts | 356° |
| 2026-04-20 22:13 | 0.04634 | 55.35539 | 32826 ft | 474 kts | 356° |
| 2026-04-20 22:13 | 0.17857 | 55.34663 | 32847 ft | 475 kts | 356° |
| 2026-04-20 22:14 | 0.31059 | 55.33789 | 32829 ft | 475 kts | 356° |
| 2026-04-20 22:14 | 0.44189 | 55.32920 | 32846 ft | 475 kts | 356° |
| 2026-04-20 22:15 | 0.57444 | 55.32041 | 32826 ft | 475 kts | 356° |
| 2026-04-20 22:15 | 0.70702 | 55.31164 | 32842 ft | 476 kts | 356° |
| 2026-04-20 22:16 | 0.83949 | 55.30286 | 32841 ft | 476 kts | 356° |
| 2026-04-20 22:16 | 0.97151 | 55.29412 | 32844 ft | 476 kts | 356° |
| 2026-04-20 22:17 | 1.10432 | 55.28532 | 32842 ft | 476 kts | 356° |
| 2026-04-20 22:17 | 1.23733 | 55.27651 | 32848 ft | 478 kts | 356° |
| 2026-04-20 22:18 | 1.36995 | 55.26772 | 32849 ft | 477 kts | 356° |
| 2026-04-20 22:18 | 1.50293 | 55.25891 | 32848 ft | 478 kts | 356° |
| 2026-04-20 22:19 | 1.63605 | 55.25008 | 32847 ft | 478 kts | 356° |
| 2026-04-20 22:19 | 1.76975 | 55.24122 | 33834 ft | 483 kts | 356° |
| 2026-04-20 22:20 | 1.90003 | 55.23259 | 33843 ft | 475 kts | 356° |
| 2026-04-20 22:20 | 2.03201 | 55.22384 | 33827 ft | 474 kts | 356° |
| 2026-04-20 22:21 | 2.16384 | 55.21510 | 33847 ft | 473 kts | 356° |
| 2026-04-20 22:21 | 2.29543 | 55.20637 | 33848 ft | 473 kts | 356° |
| 2026-04-20 22:22 | 2.42650 | 55.19767 | 33848 ft | 474 kts | 356° |
| 2026-04-20 22:22 | 2.55756 | 55.18898 | 33847 ft | 472 kts | 356° |
| 2026-04-20 22:23 | 2.68856 | 55.18029 | 33846 ft | 471 kts | 356° |
| 2026-04-20 22:23 | 2.82013 | 55.17155 | 33845 ft | 472 kts | 356° |
| 2026-04-20 22:24 | 2.95146 | 55.16283 | 33845 ft | 472 kts | 356° |
| 2026-04-20 22:24 | 3.08260 | 55.15413 | 33843 ft | 471 kts | 356° |
| 2026-04-20 22:25 | 3.21251 | 55.14550 | 33849 ft | 471 kts | 356° |
| 2026-04-20 22:25 | 3.34369 | 55.13678 | 33848 ft | 471 kts | 356° |
| 2026-04-20 22:26 | 3.47515 | 55.12804 | 33848 ft | 470 kts | 356° |
| 2026-04-20 22:26 | 3.60633 | 55.11932 | 33847 ft | 472 kts | 356° |
| 2026-04-20 22:27 | 3.80266 | 55.10627 | 33845 ft | 472 kts | 356° |
| 2026-04-20 22:27 | 3.93423 | 55.09752 | 33838 ft | 471 kts | 356° |
| 2026-04-20 22:28 | 4.06532 | 55.08879 | 33832 ft | 471 kts | 356° |
| 2026-04-20 22:28 | 4.19661 | 55.08005 | 33851 ft | 470 kts | 356° |
| 2026-04-20 22:29 | 4.32621 | 55.07142 | 33847 ft | 471 kts | 356° |
| 2026-04-20 22:29 | 4.45730 | 55.06269 | 33847 ft | 470 kts | 356° |
| 2026-04-20 22:30 | 4.58677 | 55.05406 | 33848 ft | 469 kts | 356° |
| 2026-04-20 22:30 | 4.71691 | 55.04538 | 33849 ft | 469 kts | 356° |
| 2026-04-20 22:31 | 4.84792 | 55.03665 | 33847 ft | 470 kts | 356° |
| 2026-04-20 22:31 | 4.97706 | 55.02803 | 33846 ft | 468 kts | 356° |
| 2026-04-20 22:32 | 5.10740 | 55.01933 | 33843 ft | 468 kts | 356° |
| 2026-04-20 22:32 | 5.23748 | 55.01065 | 33847 ft | 467 kts | 356° |
| 2026-04-20 22:33 | 5.36753 | 55.00196 | 33852 ft | 466 kts | 356° |
| 2026-04-20 22:33 | 5.49752 | 54.99937 | 33853 ft | 466 kts | 0° |
| 2026-04-20 22:34 | 5.62681 | 54.99980 | 33850 ft | 467 kts | 360° |
| 2026-04-20 22:34 | 5.75702 | 54.99992 | 33857 ft | 465 kts | 360° |
| 2026-04-20 22:35 | 5.88637 | 54.99995 | 33847 ft | 466 kts | 360° |
| 2026-04-20 22:35 | 6.01617 | 54.99996 | 33857 ft | 466 kts | 360° |
| 2026-04-20 22:36 | 6.14578 | 54.99997 | 33857 ft | 465 kts | 360° |
| 2026-04-20 22:36 | 6.27513 | 54.99997 | 33864 ft | 464 kts | 360° |
| 2026-04-20 22:37 | 6.40296 | 54.99997 | 33851 ft | 464 kts | 359° |
| 2026-04-20 22:37 | 6.53289 | 54.99997 | 33855 ft | 464 kts | 359° |
| 2026-04-20 22:38 | 6.66220 | 54.99997 | 33846 ft | 464 kts | 359° |
| 2026-04-20 22:38 | 6.79212 | 54.99997 | 33846 ft | 464 kts | 359° |
| 2026-04-20 22:39 | 6.92106 | 54.99997 | 33845 ft | 463 kts | 359° |
| 2026-04-20 22:39 | 7.05001 | 54.99997 | 33843 ft | 463 kts | 359° |
| 2026-04-20 22:40 | 7.17915 | 54.99997 | 33851 ft | 463 kts | 359° |
| 2026-04-20 22:40 | 7.30810 | 54.99997 | 33850 ft | 462 kts | 359° |
| 2026-04-20 22:41 | 7.43662 | 54.99997 | 33849 ft | 462 kts | 359° |
| 2026-04-20 22:41 | 7.56548 | 54.99997 | 33848 ft | 462 kts | 359° |
| 2026-04-20 22:42 | 7.69421 | 54.99997 | 33846 ft | 463 kts | 359° |
| 2026-04-20 22:42 | 7.82388 | 54.99997 | 33850 ft | 462 kts | 359° |
| 2026-04-20 22:43 | 7.95256 | 54.99997 | 33860 ft | 463 kts | 359° |
| 2026-04-20 22:43 | 8.08129 | 54.99997 | 33848 ft | 463 kts | 359° |
| 2026-04-20 22:44 | 8.20979 | 54.99997 | 33866 ft | 462 kts | 359° |
| 2026-04-20 22:44 | 8.33799 | 54.99997 | 33854 ft | 461 kts | 359° |
| 2026-04-20 22:45 | 8.46726 | 54.99997 | 33863 ft | 462 kts | 359° |
| 2026-04-20 22:45 | 8.59542 | 54.99997 | 33851 ft | 460 kts | 359° |
| 2026-04-20 22:46 | 8.72383 | 54.99997 | 33861 ft | 461 kts | 359° |
| 2026-04-20 22:46 | 8.85215 | 54.99997 | 33849 ft | 461 kts | 359° |
| 2026-04-20 22:47 | 8.98086 | 54.99997 | 33858 ft | 461 kts | 359° |
| 2026-04-20 22:47 | 9.10954 | 54.99997 | 33846 ft | 460 kts | 359° |
| 2026-04-20 22:48 | 9.23781 | 54.99997 | 33852 ft | 462 kts | 359° |
| 2026-04-20 22:48 | 9.36570 | 54.99997 | 33857 ft | 461 kts | 359° |
| 2026-04-20 22:49 | 9.49404 | 54.99997 | 33854 ft | 460 kts | 358° |
| 2026-04-20 22:49 | 9.62224 | 54.99997 | 33863 ft | 461 kts | 358° |
| 2026-04-20 22:50 | 9.75062 | 54.99997 | 33850 ft | 461 kts | 358° |
| 2026-04-20 22:50 | 9.87919 | 54.99997 | 33859 ft | 461 kts | 358° |
| 2026-04-20 22:51 | 10.00745 | 54.99997 | 33848 ft | 461 kts | 358° |
| 2026-04-20 22:51 | 10.13580 | 54.99997 | 33867 ft | 461 kts | 358° |
| 2026-04-20 22:52 | 10.26415 | 54.99997 | 33854 ft | 461 kts | 358° |
| 2026-04-20 22:52 | 10.39172 | 54.99997 | 33866 ft | 460 kts | 358° |
| 2026-04-20 22:53 | 10.51959 | 54.99997 | 33851 ft | 460 kts | 358° |
| 2026-04-20 22:53 | 10.64803 | 54.99997 | 33862 ft | 461 kts | 358° |
| 2026-04-20 22:54 | 10.77572 | 54.99997 | 33849 ft | 459 kts | 358° |
| 2026-04-20 22:54 | 10.90361 | 54.99997 | 33859 ft | 459 kts | 358° |
| 2026-04-20 22:55 | 11.03057 | 54.99997 | 33846 ft | 460 kts | 358° |
| 2026-04-20 22:55 | 11.15749 | 54.99997 | 33866 ft | 460 kts | 358° |
| 2026-04-20 22:56 | 11.28557 | 54.99997 | 33851 ft | 460 kts | 358° |
| 2026-04-20 22:56 | 11.41369 | 54.99997 | 33862 ft | 460 kts | 358° |
| 2026-04-20 22:57 | 11.54138 | 54.99997 | 33849 ft | 459 kts | 358° |
| 2026-04-20 22:57 | 11.66885 | 54.99997 | 33861 ft | 459 kts | 358° |
| 2026-04-20 22:58 | 11.79729 | 54.99997 | 33848 ft | 459 kts | 358° |
| 2026-04-20 22:58 | 11.92524 | 54.99997 | 33859 ft | 460 kts | 357° |
| 2026-04-20 22:59 | 12.05279 | 55.00638 | 33846 ft | 463 kts | 4° |
| 2026-04-20 22:59 | 12.17934 | 55.02223 | 33871 ft | 460 kts | 4° |
| 2026-04-20 23:00 | 12.30636 | 55.03807 | 33869 ft | 460 kts | 4° |
| 2026-04-20 23:00 | 12.43391 | 55.05397 | 33862 ft | 459 kts | 4° |
| 2026-04-20 23:01 | 12.56015 | 55.06972 | 33865 ft | 459 kts | 4° |
| 2026-04-20 23:01 | 12.68623 | 55.08546 | 33853 ft | 459 kts | 4° |
| 2026-04-20 23:02 | 12.81318 | 55.10133 | 33861 ft | 457 kts | 4° |
| 2026-04-20 23:02 | 12.93953 | 55.11714 | 33846 ft | 458 kts | 4° |
| 2026-04-20 23:03 | 13.06521 | 55.13288 | 33860 ft | 456 kts | 4° |
| 2026-04-20 23:03 | 13.18942 | 55.14845 | 33856 ft | 454 kts | 4° |
| 2026-04-20 23:04 | 13.31409 | 55.16409 | 33868 ft | 456 kts | 4° |
| 2026-04-20 23:04 | 13.44039 | 55.17996 | 33853 ft | 454 kts | 4° |
| 2026-04-20 23:05 | 13.56629 | 55.19580 | 33868 ft | 454 kts | 4° |
| 2026-04-20 23:05 | 13.69018 | 55.21139 | 33850 ft | 454 kts | 4° |
| 2026-04-20 23:06 | 13.81611 | 55.22726 | 33863 ft | 453 kts | 3° |
| 2026-04-20 23:06 | 13.93988 | 55.24283 | 33846 ft | 451 kts | 4° |
| 2026-04-20 23:07 | 14.06253 | 55.25801 | 33861 ft | 452 kts | 3° |
| 2026-04-20 23:07 | 14.18760 | 55.27352 | 33987 ft | 459 kts | 3° |
| 2026-04-20 23:08 | 14.25074 | 55.28137 | 34852 ft | 457 kts | 3° |
| 2026-04-20 23:08 | 14.31242 | 55.28906 | 34860 ft | 447 kts | 3° |
| 2026-04-20 23:08 | 14.43649 | 55.30448 | 34850 ft | 447 kts | 3° |
| 2026-04-20 23:09 | 14.55973 | 55.31984 | 34849 ft | 447 kts | 3° |
| 2026-04-20 23:09 | 14.68324 | 55.33524 | 34858 ft | 447 kts | 3° |
| 2026-04-20 23:10 | 14.80491 | 55.35043 | 34847 ft | 447 kts | 3° |
| 2026-04-20 23:10 | 14.92734 | 55.36573 | 34865 ft | 447 kts | 3° |
| 2026-04-20 23:11 | 15.04917 | 55.38097 | 34844 ft | 445 kts | 3° |
| 2026-04-20 23:11 | 15.17171 | 55.39632 | 34874 ft | 444 kts | 3° |
| 2026-04-20 23:12 | 15.29343 | 55.41137 | 34856 ft | 445 kts | 2° |
| 2026-04-20 23:12 | 15.41541 | 55.42641 | 34872 ft | 444 kts | 2° |
| 2026-04-20 23:13 | 15.53840 | 55.44159 | 34853 ft | 446 kts | 2° |
| 2026-04-20 23:13 | 15.65997 | 55.45662 | 34868 ft | 444 kts | 2° |
| 2026-04-20 23:14 | 15.78223 | 55.47176 | 34850 ft | 443 kts | 2° |
| 2026-04-20 23:14 | 15.90487 | 55.48696 | 34859 ft | 445 kts | 2° |
| 2026-04-20 23:15 | 16.02756 | 55.50219 | 34847 ft | 443 kts | 2° |
| 2026-04-20 23:15 | 16.14957 | 55.51734 | 34862 ft | 444 kts | 2° |
| 2026-04-20 23:16 | 16.27200 | 55.53258 | 34854 ft | 442 kts | 2° |
| 2026-04-20 23:16 | 16.39457 | 55.54784 | 34855 ft | 444 kts | 2° |
| 2026-04-20 23:17 | 16.51674 | 55.56308 | 34843 ft | 443 kts | 2° |
| 2026-04-20 23:17 | 16.63839 | 55.57828 | 34851 ft | 442 kts | 2° |
| 2026-04-20 23:18 | 16.75968 | 55.59345 | 34837 ft | 442 kts | 1° |
| 2026-04-20 23:18 | 16.88141 | 55.60869 | 34848 ft | 443 kts | 1° |
| 2026-04-20 23:19 | 16.96857 | 55.61973 | 34833 ft | 443 kts | 2° |
| 2026-04-20 23:19 | 17.02991 | 55.62752 | 34830 ft | 443 kts | 1° |
| 2026-04-20 23:20 | 17.09113 | 55.63531 | 34840 ft | 441 kts | 1° |
| 2026-04-20 23:20 | 17.15244 | 55.64311 | 34859 ft | 442 kts | 1° |
| 2026-04-20 23:21 | 17.21389 | 55.65093 | 34840 ft | 442 kts | 1° |
| 2026-04-20 23:21 | 17.27500 | 55.65871 | 34832 ft | 442 kts | 1° |
| 2026-04-20 23:22 | 17.33648 | 55.66655 | 34839 ft | 441 kts | 1° |
| 2026-04-20 23:22 | 17.39782 | 55.67437 | 34842 ft | 441 kts | 1° |
| 2026-04-20 23:23 | 17.45881 | 55.68215 | 34829 ft | 441 kts | 1° |
| 2026-04-20 23:23 | 17.51979 | 55.68995 | 34819 ft | 440 kts | 1° |
| 2026-04-20 23:24 | 17.58119 | 55.69778 | 34823 ft | 442 kts | 1° |
| 2026-04-20 23:24 | 17.64223 | 55.70560 | 34817 ft | 439 kts | 1° |
| 2026-04-20 23:25 | 17.70307 | 55.71337 | 34822 ft | 440 kts | 1° |
| 2026-04-20 23:25 | 17.76439 | 55.72123 | 34824 ft | 441 kts | 1° |
| 2026-04-20 23:26 | 17.82552 | 55.72906 | 34837 ft | 439 kts | 1° |
| 2026-04-20 23:26 | 17.88650 | 55.73688 | 34845 ft | 440 kts | 1° |
| 2026-04-20 23:27 | 17.94757 | 55.74471 | 34855 ft | 440 kts | 1° |
| 2026-04-20 23:27 | 18.00851 | 55.75573 | 34863 ft | 445 kts | 7° |
| 2026-04-20 23:28 | 18.06931 | 55.77183 | 34862 ft | 443 kts | 7° |
| 2026-04-20 23:28 | 18.12933 | 55.78775 | 34875 ft | 445 kts | 7° |
| 2026-04-20 23:29 | 18.18989 | 55.80381 | 34876 ft | 445 kts | 8° |
| 2026-04-20 23:29 | 18.25026 | 55.81982 | 34873 ft | 446 kts | 7° |
| 2026-04-20 23:30 | 18.31023 | 55.83572 | 34873 ft | 444 kts | 7° |
| 2026-04-20 23:30 | 18.37058 | 55.85175 | 34872 ft | 443 kts | 7° |
| 2026-04-20 23:31 | 18.43058 | 55.86767 | 34868 ft | 446 kts | 7° |
| 2026-04-20 23:31 | 18.49096 | 55.88372 | 34864 ft | 445 kts | 7° |
| 2026-04-20 23:32 | 18.55081 | 55.89963 | 34862 ft | 446 kts | 8° |
| 2026-04-20 23:32 | 18.61088 | 55.91562 | 34858 ft | 445 kts | 7° |
| 2026-04-20 23:33 | 18.67135 | 55.93173 | 34857 ft | 443 kts | 7° |
| 2026-04-20 23:33 | 18.73154 | 55.94776 | 34855 ft | 443 kts | 7° |
| 2026-04-20 23:34 | 18.79172 | 55.96381 | 34852 ft | 444 kts | 7° |
| 2026-04-20 23:34 | 18.85216 | 55.97994 | 34845 ft | 445 kts | 7° |
| 2026-04-20 23:35 | 18.94234 | 56.00404 | 34845 ft | 443 kts | 7° |
| 2026-04-20 23:36 | 19.00238 | 56.02009 | 34833 ft | 444 kts | 7° |
| 2026-04-20 23:36 | 19.06255 | 56.03620 | 34822 ft | 446 kts | 7° |
| 2026-04-20 23:37 | 19.12293 | 56.05238 | 34837 ft | 443 kts | 7° |
| 2026-04-20 23:37 | 19.18296 | 56.06848 | 34836 ft | 442 kts | 7° |
| 2026-04-20 23:38 | 19.24284 | 56.08455 | 34833 ft | 442 kts | 7° |
| 2026-04-20 23:38 | 19.30277 | 56.10064 | 34832 ft | 442 kts | 7° |
| 2026-04-20 23:39 | 19.36301 | 56.11682 | 34834 ft | 445 kts | 7° |
| 2026-04-20 23:39 | 19.42321 | 56.13302 | 34832 ft | 445 kts | 7° |
| 2026-04-20 23:40 | 19.48384 | 56.14934 | 34829 ft | 444 kts | 7° |
| 2026-04-20 23:40 | 19.54408 | 56.16556 | 34829 ft | 445 kts | 7° |
| 2026-04-20 23:41 | 19.60413 | 56.18176 | 34821 ft | 444 kts | 7° |
| 2026-04-20 23:41 | 19.66473 | 56.19810 | 34814 ft | 444 kts | 7° |
| 2026-04-20 23:42 | 19.72488 | 56.21434 | 34814 ft | 445 kts | 7° |
| 2026-04-20 23:42 | 19.78492 | 56.23057 | 34823 ft | 443 kts | 7° |
| 2026-04-20 23:43 | 19.84530 | 56.24688 | 34818 ft | 447 kts | 7° |
| 2026-04-20 23:43 | 19.90575 | 56.26325 | 34812 ft | 445 kts | 7° |
| 2026-04-20 23:44 | 19.96599 | 56.27823 | 34819 ft | 440 kts | 1° |
| 2026-04-20 23:44 | 20.02677 | 56.28099 | 34827 ft | 432 kts | 355° |
| 2026-04-20 23:45 | 20.08747 | 56.28109 | 34826 ft | 435 kts | 354° |
| 2026-04-20 23:45 | 20.14859 | 56.28122 | 34839 ft | 434 kts | 355° |
| 2026-04-20 23:46 | 20.20935 | 56.28135 | 34844 ft | 436 kts | 355° |
| 2026-04-20 23:46 | 20.27035 | 56.28150 | 34840 ft | 434 kts | 355° |
| 2026-04-20 23:47 | 20.33127 | 56.28164 | 34833 ft | 437 kts | 355° |
| 2026-04-20 23:47 | 20.39227 | 56.28179 | 34833 ft | 436 kts | 355° |
| 2026-04-20 23:48 | 20.45332 | 56.28193 | 34839 ft | 439 kts | 355° |
| 2026-04-20 23:48 | 20.51479 | 56.28209 | 34829 ft | 437 kts | 355° |
| 2026-04-20 23:49 | 20.57531 | 56.27945 | 34818 ft | 433 kts | 348° |
| 2026-04-20 23:49 | 20.63556 | 56.27078 | 34821 ft | 433 kts | 348° |
| 2026-04-20 23:50 | 20.69508 | 56.26213 | 34820 ft | 434 kts | 348° |
| 2026-04-20 23:50 | 20.75542 | 56.25337 | 34816 ft | 433 kts | 347° |
| 2026-04-20 23:51 | 20.81572 | 56.24462 | 34814 ft | 434 kts | 348° |
| 2026-04-20 23:51 | 20.87594 | 56.23588 | 34809 ft | 436 kts | 348° |
| 2026-04-20 23:52 | 20.93612 | 56.22715 | 34804 ft | 437 kts | 348° |
| 2026-04-20 23:52 | 20.99670 | 56.21834 | 34784 ft | 437 kts | 348° |
| 2026-04-20 23:53 | 21.05706 | 56.20956 | 34787 ft | 439 kts | 348° |
| 2026-04-20 23:53 | 21.11800 | 56.20070 | 34794 ft | 437 kts | 348° |
| 2026-04-20 23:54 | 21.17860 | 56.19187 | 34796 ft | 440 kts | 348° |
| 2026-04-20 23:54 | 21.23921 | 56.18304 | 34789 ft | 438 kts | 348° |
| 2026-04-20 23:55 | 21.29977 | 56.17420 | 34785 ft | 436 kts | 348° |
| 2026-04-20 23:55 | 21.36033 | 56.16531 | 34782 ft | 440 kts | 348° |
| 2026-04-20 23:56 | 21.42095 | 56.15642 | 34783 ft | 439 kts | 348° |
| 2026-04-20 23:56 | 21.48176 | 56.14749 | 34778 ft | 437 kts | 348° |
| 2026-04-20 23:57 | 21.54263 | 56.13854 | 34789 ft | 440 kts | 348° |
| 2026-04-20 23:57 | 21.60322 | 56.12963 | 34796 ft | 440 kts | 348° |
| 2026-04-20 23:58 | 21.66399 | 56.12068 | 34796 ft | 437 kts | 349° |
| 2026-04-20 23:58 | 21.72458 | 56.11176 | 34800 ft | 439 kts | 348° |
| 2026-04-20 23:59 | 21.78552 | 56.10276 | 34796 ft | 441 kts | 348° |
| 2026-04-20 23:59 | 21.84720 | 56.09365 | 34798 ft | 441 kts | 349° |
| 2026-04-21 00:00 | 21.90843 | 56.08461 | 34794 ft | 443 kts | 348° |
| 2026-04-21 00:00 | 21.96942 | 56.07560 | 34799 ft | 442 kts | 348° |
| 2026-04-21 00:01 | 22.03090 | 56.06650 | 34784 ft | 440 kts | 349° |
| 2026-04-21 00:01 | 22.09192 | 56.05747 | 34777 ft | 444 kts | 348° |
| 2026-04-21 00:02 | 22.15346 | 56.04837 | 34787 ft | 440 kts | 348° |
| 2026-04-21 00:02 | 22.21458 | 56.03931 | 34784 ft | 441 kts | 349° |
| 2026-04-21 00:03 | 22.27610 | 56.03019 | 34798 ft | 442 kts | 348° |
| 2026-04-21 00:03 | 22.33718 | 56.02112 | 34808 ft | 443 kts | 348° |
| 2026-04-21 00:04 | 22.39842 | 56.01203 | 34806 ft | 444 kts | 348° |
| 2026-04-21 00:04 | 22.45981 | 56.00298 | 34808 ft | 443 kts | 348° |
| 2026-04-21 00:05 | 22.52126 | 55.99390 | 34806 ft | 446 kts | 348° |
| 2026-04-21 00:05 | 22.58335 | 55.98473 | 34808 ft | 442 kts | 348° |
| 2026-04-21 00:06 | 22.64461 | 55.97567 | 34808 ft | 447 kts | 348° |
| 2026-04-21 00:06 | 22.70653 | 55.96650 | 34813 ft | 443 kts | 348° |
| 2026-04-21 00:07 | 22.76839 | 55.95732 | 34811 ft | 450 kts | 348° |
| 2026-04-21 00:07 | 22.83030 | 55.94813 | 34813 ft | 446 kts | 348° |
| 2026-04-21 00:08 | 22.89218 | 55.93887 | 34812 ft | 443 kts | 349° |
| 2026-04-21 00:08 | 22.95369 | 55.92966 | 34806 ft | 446 kts | 348° |
| 2026-04-21 00:09 | 23.01540 | 55.92042 | 34798 ft | 446 kts | 348° |
| 2026-04-21 00:09 | 23.07661 | 55.91122 | 34793 ft | 444 kts | 348° |
| 2026-04-21 00:10 | 23.13890 | 55.90183 | 34802 ft | 447 kts | 348° |
| 2026-04-21 00:10 | 23.20053 | 55.89254 | 34803 ft | 444 kts | 348° |
| 2026-04-21 00:11 | 23.26246 | 55.88319 | 34812 ft | 447 kts | 348° |
| 2026-04-21 00:11 | 23.32434 | 55.87384 | 34813 ft | 446 kts | 348° |
| 2026-04-21 00:12 | 23.38656 | 55.86443 | 34818 ft | 449 kts | 348° |
| 2026-04-21 00:12 | 23.44904 | 55.85497 | 34817 ft | 448 kts | 348° |
| 2026-04-21 00:13 | 23.51058 | 55.84565 | 34818 ft | 449 kts | 348° |
| 2026-04-21 00:13 | 23.57276 | 55.83621 | 34819 ft | 448 kts | 349° |
| 2026-04-21 00:14 | 23.63458 | 55.82681 | 34826 ft | 447 kts | 348° |
| 2026-04-21 00:14 | 23.69722 | 55.81847 | 34823 ft | 455 kts | 354° |
| 2026-04-21 00:15 | 23.76097 | 55.82268 | 34836 ft | 454 kts | 1° |
| 2026-04-21 00:15 | 23.79206 | 55.82597 | 34692 ft | 450 kts | 1° |
| 2026-04-21 00:15 | 23.82358 | 55.82930 | 33891 ft | 451 kts | 2° |
| 2026-04-21 00:15 | 23.85498 | 55.83259 | 32950 ft | 456 kts | 3° |
| 2026-04-21 00:16 | 23.88633 | 55.83588 | 32126 ft | 464 kts | 3° |
| 2026-04-21 00:16 | 23.91994 | 55.83938 | 31284 ft | 490 kts | 3° |
| 2026-04-21 00:16 | 23.95441 | 55.84298 | 30461 ft | 497 kts | 4° |
| 2026-04-21 00:16 | 23.98845 | 55.84656 | 29985 ft | 492 kts | 4° |
| 2026-04-21 00:17 | 24.02255 | 55.85014 | 29488 ft | 488 kts | 4° |
| 2026-04-21 00:17 | 24.05643 | 55.85371 | 28937 ft | 487 kts | 4° |
| 2026-04-21 00:17 | 24.09016 | 55.85725 | 28358 ft | 486 kts | 4° |
| 2026-04-21 00:17 | 24.12411 | 55.86082 | 27768 ft | 482 kts | 4° |
| 2026-04-21 00:18 | 24.15744 | 55.86432 | 27193 ft | 478 kts | 3° |
| 2026-04-21 00:18 | 24.19078 | 55.86783 | 26594 ft | 473 kts | 3° |
| 2026-04-21 00:18 | 24.22337 | 55.87126 | 26012 ft | 469 kts | 3° |
| 2026-04-21 00:18 | 24.25567 | 55.87466 | 25426 ft | 464 kts | 2° |
| 2026-04-21 00:19 | 24.28757 | 55.87801 | 24840 ft | 460 kts | 2° |
| 2026-04-21 00:19 | 24.31962 | 55.88191 | 24244 ft | 457 kts | 6° |
| 2026-04-21 00:19 | 24.35048 | 55.88985 | 23632 ft | 456 kts | 15° |
| 2026-04-21 00:19 | 24.37970 | 55.90319 | 23038 ft | 456 kts | 24° |
| 2026-04-21 00:20 | 24.40669 | 55.92166 | 22433 ft | 456 kts | 34° |
| 2026-04-21 00:20 | 24.43048 | 55.94421 | 21848 ft | 455 kts | 41° |
| 2026-04-21 00:20 | 24.45319 | 55.96809 | 21244 ft | 451 kts | 41° |
| 2026-04-21 00:20 | 24.47590 | 55.99183 | 20644 ft | 447 kts | 41° |
| 2026-04-21 00:21 | 24.49843 | 56.01511 | 20082 ft | 443 kts | 40° |
| 2026-04-21 00:21 | 24.52098 | 56.03819 | 19543 ft | 438 kts | 40° |
| 2026-04-21 00:21 | 24.54319 | 56.06080 | 18961 ft | 435 kts | 40° |
| 2026-04-21 00:21 | 24.56529 | 56.08325 | 18362 ft | 432 kts | 40° |
| 2026-04-21 00:22 | 24.58853 | 56.10315 | 17801 ft | 425 kts | 30° |
| 2026-04-21 00:22 | 24.61478 | 56.11840 | 17232 ft | 418 kts | 20° |
| 2026-04-21 00:22 | 24.64194 | 56.12786 | 16654 ft | 413 kts | 10° |
| 2026-04-21 00:22 | 24.67024 | 56.13374 | 16055 ft | 409 kts | 8° |
| 2026-04-21 00:23 | 24.69835 | 56.13908 | 15458 ft | 406 kts | 8° |
| 2026-04-21 00:23 | 24.72596 | 56.14425 | 14872 ft | 403 kts | 8° |
| 2026-04-21 00:23 | 24.75365 | 56.14931 | 14263 ft | 400 kts | 6° |
| 2026-04-21 00:23 | 24.78100 | 56.15062 | 13677 ft | 395 kts | 355° |
| 2026-04-21 00:24 | 24.80826 | 56.14621 | 13107 ft | 390 kts | 345° |
| 2026-04-21 00:24 | 24.83341 | 56.13652 | 12926 ft | 374 kts | 336° |
| 2026-04-21 00:24 | 24.85654 | 56.12547 | 12744 ft | 354 kts | 336° |
| 2026-04-21 00:24 | 24.87866 | 56.11480 | 12442 ft | 336 kts | 336° |
| 2026-04-21 00:25 | 24.89963 | 56.10463 | 12197 ft | 317 kts | 336° |
| 2026-04-21 00:25 | 24.91930 | 56.09502 | 11986 ft | 300 kts | 336° |
| 2026-04-21 00:25 | 24.93788 | 56.08591 | 11648 ft | 290 kts | 335° |
| 2026-04-21 00:25 | 24.95624 | 56.07687 | 11278 ft | 287 kts | 335° |
| 2026-04-21 00:26 | 24.97364 | 56.06614 | 10831 ft | 286 kts | 320° |
| 2026-04-21 00:26 | 24.98767 | 56.05104 | 10447 ft | 284 kts | 314° |
| 2026-04-21 00:26 | 25.00103 | 56.03482 | 10043 ft | 282 kts | 313° |
| 2026-04-21 00:26 | 25.01405 | 56.01883 | 9638 ft | 280 kts | 314° |
| 2026-04-21 00:27 | 25.02696 | 56.00299 | 9229 ft | 278 kts | 314° |
| 2026-04-21 00:27 | 25.03983 | 55.98724 | 8828 ft | 277 kts | 314° |
| 2026-04-21 00:27 | 25.05279 | 55.97138 | 8386 ft | 276 kts | 313° |
| 2026-04-21 00:27 | 25.06543 | 55.95589 | 8326 ft | 262 kts | 313° |
| 2026-04-21 00:28 | 25.07725 | 55.94138 | 8246 ft | 252 kts | 313° |
| 2026-04-21 00:28 | 25.08900 | 55.92699 | 7949 ft | 251 kts | 313° |
| 2026-04-21 00:28 | 25.10066 | 55.91269 | 7612 ft | 252 kts | 313° |
| 2026-04-21 00:28 | 25.11243 | 55.89825 | 7337 ft | 251 kts | 313° |
| 2026-04-21 00:29 | 25.12407 | 55.88395 | 7037 ft | 251 kts | 313° |
| 2026-04-21 00:29 | 25.13554 | 55.86957 | 6736 ft | 251 kts | 307° |
| 2026-04-21 00:29 | 25.14232 | 55.85178 | 6396 ft | 255 kts | 279° |
| 2026-04-21 00:29 | 25.14314 | 55.83235 | 6137 ft | 254 kts | 272° |
| 2026-04-21 00:30 | 25.14317 | 55.81297 | 5866 ft | 253 kts | 272° |
| 2026-04-21 00:30 | 25.14312 | 55.79353 | 5596 ft | 252 kts | 272° |
| 2026-04-21 00:30 | 25.14306 | 55.77429 | 5345 ft | 250 kts | 272° |
| 2026-04-21 00:30 | 25.14299 | 55.75517 | 5064 ft | 250 kts | 272° |
| 2026-04-21 00:31 | 25.14296 | 55.73590 | 4787 ft | 249 kts | 272° |
| 2026-04-21 00:31 | 25.14291 | 55.71696 | 4540 ft | 247 kts | 272° |
| 2026-04-21 00:31 | 25.14283 | 55.69801 | 4255 ft | 247 kts | 272° |
| 2026-04-21 00:31 | 25.14278 | 55.67902 | 4000 ft | 245 kts | 272° |
| 2026-04-21 00:32 | 25.14274 | 55.66032 | 3770 ft | 242 kts | 272° |
| 2026-04-21 00:32 | 25.14276 | 55.64204 | 3617 ft | 236 kts | 272° |
| 2026-04-21 00:32 | 25.14276 | 55.62421 | 3482 ft | 226 kts | 272° |
| 2026-04-21 00:32 | 25.14271 | 55.60717 | 3341 ft | 216 kts | 272° |
| 2026-04-21 00:33 | 25.14262 | 55.59108 | 3219 ft | 207 kts | 272° |
| 2026-04-21 00:33 | 25.14249 | 55.57560 | 3100 ft | 198 kts | 273° |
| 2026-04-21 00:33 | 25.14445 | 55.56070 | 2973 ft | 196 kts | 292° |
| 2026-04-21 00:33 | 25.15043 | 55.54715 | 2849 ft | 196 kts | 302° |
| 2026-04-21 00:34 | 25.15758 | 55.53439 | 2727 ft | 195 kts | 303° |
| 2026-04-21 00:34 | 25.16484 | 55.52169 | 2536 ft | 198 kts | 303° |
| 2026-04-21 00:34 | 25.17212 | 55.50885 | 2299 ft | 196 kts | 303° |
| 2026-04-21 00:34 | 25.17930 | 55.49604 | 2061 ft | 192 kts | 303° |
| 2026-04-21 00:35 | 25.18615 | 55.48383 | 1832 ft | 179 kts | 303° |
| 2026-04-21 00:35 | 25.19254 | 55.47242 | 1622 ft | 168 kts | 303° |
| 2026-04-21 00:35 | 25.19840 | 55.46195 | 1425 ft | 158 kts | 303° |
| 2026-04-21 00:35 | 25.20421 | 55.45153 | 1220 ft | 157 kts | 303° |
| 2026-04-21 00:36 | 25.20993 | 55.44128 | 1018 ft | 156 kts | 303° |
| 2026-04-21 00:36 | 25.21563 | 55.43103 | 812 ft | 156 kts | 303° |
| 2026-04-21 00:36 | 25.22140 | 55.42081 | 596 ft | 155 kts | 304° |
| 2026-04-21 00:36 | 25.22708 | 55.41070 | 393 ft | 155 kts | 302° |
| 2026-04-21 00:37 | 25.23269 | 55.40068 | 186 ft | 153 kts | 302° |
| 2026-04-21 00:37 | 25.23825 | 55.39062 | 59 ft | 150 kts | 302° |
| 2026-04-21 00:37 | 25.24309 | 55.38192 | 45 ft | 109 kts | 301° |
| 2026-04-21 00:37 | 25.24610 | 55.37649 | 45 ft | 55 kts | 300° |
| 2026-04-21 00:38 | 25.24764 | 55.37321 | 45 ft | 34 kts | 287° |
| 2026-04-21 00:38 | 25.24787 | 55.37147 | 45 ft | 11 kts | 275° |
| 2026-04-21 00:38 | 25.24791 | 55.37094 | 45 ft | 5 kts | 275° |
| 2026-04-21 00:38 | 25.24794 | 55.37056 | 45 ft | 4 kts | 274° |
| 2026-04-21 00:39 | 25.24796 | 55.37018 | 45 ft | 5 kts | 274° |
| 2026-04-21 00:39 | 25.24794 | 55.36981 | 45 ft | 5 kts | 242° |
| 2026-04-21 00:39 | 25.24747 | 55.36941 | 45 ft | 9 kts | 212° |
| 2026-04-21 00:39 | 25.24689 | 55.36903 | 45 ft | 9 kts | 211° |
| 2026-04-21 00:40 | 25.24634 | 55.36866 | 45 ft | 9 kts | 211° |
| 2026-04-21 00:40 | 25.24581 | 55.36830 | 45 ft | 8 kts | 212° |
| 2026-04-21 00:40 | 25.24530 | 55.36795 | 45 ft | 8 kts | 212° |
| 2026-04-21 00:40 | 25.24481 | 55.36760 | 45 ft | 8 kts | 213° |
| 2026-04-21 00:41 | 25.24433 | 55.36734 | 45 ft | 6 kts | 180° |
| 2026-04-21 00:41 | 25.24413 | 55.36760 | 45 ft | 5 kts | 95° |
| 2026-04-21 00:41 | 25.24417 | 55.36800 | 45 ft | 5 kts | 78° |
| 2026-04-21 00:41 | 25.24425 | 55.36839 | 45 ft | 5 kts | 76° |
| 2026-04-21 00:42 | 25.24429 | 55.36859 | 45 ft | 0 kts | 77° |
| 2026-04-21 00:42 | 25.24430 | 55.36863 | 45 ft | 0 kts | 77° |
| 2026-04-21 00:42 | 25.24431 | 55.36869 | 45 ft | 1 kts | 77° |
| 2026-04-21 00:42 | 25.24432 | 55.36871 | 45 ft | 0 kts | 77° |